Fishers, IN (46037)

11:47 AM EDT on July 23, 2017 (GMT -0400)
Talon Crest Dr | | Change Station

Elev 822 ft 39.97 °N, 85.93 °W | Updated 9 seconds ago

Mostly Cloudy
Mostly Cloudy
74.1 °F
Feels Like 72 °F
N
1.8
Wind Variable Wind from SSE
Gusts 2.5 mph

Today
High -- | Low -- °F
--% Chance of Precip.
Yesterday
High -- | Low -- °F
Precip. -- in
Pressure 29.84 in
Visibility 10.0 miles
Clouds Scattered Clouds 1100 ft
Scattered Clouds 2100 ft
Scattered Clouds 2600 ft
Heat Index 72 °F
Dew Point 72 °F
Humidity 92%
Rainfall 0.07 in
Snow Depth Not available.
6:34 AM 9:05 PM
New Moon, 0% visible
METAR KMQJ 231528Z AUTO 25005KT 10SM SCT011 SCT021 SCT026 22/21 A2984 RMK AO1
Pressure 29.84 in
Visibility 10.0 miles
Clouds Scattered Clouds 1100 ft
Scattered Clouds 2100 ft
Scattered Clouds 2600 ft
Heat Index 72 °F
Dew Point 72 °F
Humidity 92%
Rainfall 0.07 in
Snow Depth Not available.
6:34 AM 9:05 PM
New Moon, 0% visible
METAR KMQJ 231528Z AUTO 25005KT 10SM SCT011 SCT021 SCT026 22/21 A2984 RMK AO1

Get Severe Weather Alerts

Thanks for signing up!

Be on the lookout for a verification email in your inbox.

You'll start receiving the daily forecast at 6 AM.

×

10-Day Weather Forecast

Almanac

Astronomy

Jul. 23, 2017 Rise Set
Actual Time
Civil Twilight
Nautical Twilight
Astronomical Twilight
Moon
Length of Visible Light
Length of Day
Tomorrow will be .
, % of the Moon is Illuminated

Today's Extremes

State Highs State Lows

Community

WunderPhotos

Category 6

Welcome to Category 6. This is the collective home for Weather Underground's featured writeups by Dr. Jeff Masters (right), Bob Henson (left), Chris Burt, and other regular contributors.

Nearby

Air Quality

  Air Quality AQ Index Pollutant
Not available.

Snow Depth

Station Depth Elevation

Earthquake Activity

City Distance Mag. Time & Date
Minimum magnitude displayed is 2.5.

Coastal Water Temperatures

Place Temperature

Stations

Nearby Weather Stations

Station Location Temp. Windchill Dew Point Humidity Wind Precip. Elev Updated Type
                   

Watches & Warnings

There are currently no watches in effect.